Time;durP1;ratioP1;P1;durP2;ratioP2;P2;SDS_P1;SDS_P2;PMS_P1;PMS_P2;Temp;Humidity;BMP_temperature;BMP_pressure;BME280_temperature;BME280_humidity;BME280_pressure;Samples;Min_cycle;Max_cycle;Signal;HPM_P1;HPM_P2
2023/09/27 00:01:35;;;;;;;;;;;;;;;25.08;32.80;101185.95;108946;1265;67562;-89
2023/09/27 00:04:00;;;;;;;;;;;;;;;25.07;32.87;101185.19;109105;1265;67530;-89
2023/09/27 00:06:26;;;;;;;;;;;;;;;25.07;33.05;101186.73;109259;1265;67490;-89
2023/09/27 00:08:51;;;;;;;;;;;;;;;25.07;32.86;101183.99;109221;1266;67756;-89
2023/09/27 00:11:20;;;;;;;;;;;;;;;25.06;32.74;101181.58;108994;1266;67581;-89
2023/09/27 00:16:11;;;;;;;;;;;;;;;25.06;32.95;101179.67;109134;1266;67569;-89
2023/09/27 00:18:37;;;;;;;;;;;;;;;25.05;32.81;101180.03;109114;1266;67548;-89
2023/09/27 00:21:03;;;;;;;;;;;;;;;25.05;32.79;101178.08;109071;1265;67437;-89
2023/09/27 00:23:28;;;;;;;;;;;;;;;25.05;32.84;101175.05;109113;1265;67238;-89
2023/09/27 00:25:54;;;;;;;;;;;;;;;25.05;32.91;101173.76;109067;1265;67535;-90
2023/09/27 00:28:19;;;;;;;;;;;;;;;25.05;32.76;101174.73;109041;1265;67616;-89
2023/09/27 00:30:45;;;;;;;;;;;;;;;25.05;33.06;101171.85;109167;1265;67489;-89
2023/09/27 00:33:10;;;;;;;;;;;;;;;25.04;32.82;101175.32;109140;1266;67569;-89
2023/09/27 00:35:36;;;;;;;;;;;;;;;25.04;32.80;101171.91;108961;1265;67612;-89
2023/09/27 00:38:01;;;;;;;;;;;;;;;25.04;32.72;101169.04;109061;1266;67665;-89
2023/09/27 00:40:27;;;;;;;;;;;;;;;25.03;32.95;101168.33;108966;1266;67926;-89
2023/09/27 00:42:53;;;;;;;;;;;;;;;25.03;32.82;101167.23;108970;1266;67632;-89
2023/09/27 00:45:19;;;;;;;;;;;;;;;25.03;32.74;101164.25;109098;1265;67621;-89
2023/09/27 00:47:45;;;;;;;;;;;;;;;25.02;32.69;101158.54;109032;1266;67681;-89
2023/09/27 00:50:10;;;;;;;;;;;;;;;25.03;32.55;101154.94;108987;1266;66992;-89
2023/09/27 00:52:41;;;;;;;;;;;;;;;25.02;32.88;101155.52;109115;1266;67531;-91
2023/09/27 00:55:11;;;;;;;;;;;;;;;25.02;32.65;101150.47;109052;1267;66940;-89
2023/09/27 00:57:36;;;;;;;;;;;;;;;25.01;32.71;101150.95;108987;1265;67619;-89
2023/09/27 01:00:02;;;;;;;;;;;;;;;25.01;32.77;101150.22;108955;1267;67635;-89
2023/09/27 01:02:28;;;;;;;;;;;;;;;25.01;32.71;101151.05;108947;1267;67814;-89
2023/09/27 01:04:53;;;;;;;;;;;;;;;25.01;32.53;101149.75;108931;1267;66977;-90
2023/09/27 01:07:19;;;;;;;;;;;;;;;25.01;32.66;101148.45;109046;1267;67468;-89
2023/09/27 01:09:44;;;;;;;;;;;;;;;25.01;32.84;101145.48;109037;1266;67466;-89
2023/09/27 01:12:10;;;;;;;;;;;;;;;25.00;32.83;101150.12;108917;1267;67141;-89
2023/09/27 01:14:35;;;;;;;;;;;;;;;25.00;32.46;101144.51;109021;1267;67641;-89
2023/09/27 01:17:08;;;;;;;;;;;;;;;25.00;32.60;101148.77;109028;1266;67505;-89
2023/09/27 01:19:36;;;;;;;;;;;;;;;25.00;32.58;101142.39;108974;1267;67592;-93
2023/09/27 01:22:02;;;;;;;;;;;;;;;24.99;32.68;101139.83;109016;1266;67435;-89
2023/09/27 01:24:28;;;;;;;;;;;;;;;24.99;32.78;101138.99;109006;1267;67535;-89
2023/09/27 01:26:54;;;;;;;;;;;;;;;24.99;32.58;101142.25;108914;1267;67538;-89
2023/09/27 01:29:19;;;;;;;;;;;;;;;24.98;32.60;101140.96;108916;1267;67527;-89
2023/09/27 01:31:45;;;;;;;;;;;;;;;24.98;32.45;101140.81;108939;1267;67036;-89
2023/09/27 01:34:10;;;;;;;;;;;;;;;24.99;32.76;101138.53;109066;1267;67421;-89
2023/09/27 01:36:36;;;;;;;;;;;;;;;24.98;32.59;101140.44;109095;1265;67622;-89
2023/09/27 01:39:02;;;;;;;;;;;;;;;24.98;32.58;101141.88;109064;1266;67579;-89
2023/09/27 01:41:27;;;;;;;;;;;;;;;24.97;32.71;101141.23;109312;1265;67077;-89
2023/09/27 01:43:53;;;;;;;;;;;;;;;24.98;32.41;101140.86;109239;1264;66837;-89
2023/09/27 01:48:48;;;;;;;;;;;;;;;24.97;32.58;101139.63;109185;1266;67509;-89
2023/09/27 01:51:14;;;;;;;;;;;;;;;24.97;32.65;101138.34;109101;1265;67574;-89
2023/09/27 01:53:40;;;;;;;;;;;;;;;24.96;32.39;101138.55;109182;1265;66776;-89
2023/09/27 01:56:05;;;;;;;;;;;;;;;24.96;32.43;101136.65;109131;1266;67664;-89
2023/09/27 01:58:35;;;;;;;;;;;;;;;24.96;32.50;101135.98;108969;1265;68413;31
2023/09/27 02:01:00;;;;;;;;;;;;;;;24.96;32.40;101135.77;108996;1266;67530;-90
2023/09/27 02:03:26;;;;;;;;;;;;;;;24.95;32.55;101133.30;109091;1265;67588;-89
2023/09/27 02:05:52;;;;;;;;;;;;;;;24.95;32.45;101130.77;109047;1266;67557;-89
2023/09/27 02:08:17;;;;;;;;;;;;;;;24.96;32.41;101131.23;108959;1266;67010;-89
2023/09/27 02:10:43;;;;;;;;;;;;;;;24.94;32.29;101130.42;109147;1266;67612;-89
2023/09/27 02:13:08;;;;;;;;;;;;;;;24.94;32.46;101125.02;108972;1266;67730;-89
2023/09/27 02:15:34;;;;;;;;;;;;;;;24.94;32.26;101121.27;109075;1266;67559;-89
2023/09/27 02:17:59;;;;;;;;;;;;;;;24.94;32.16;101125.49;108929;1266;67528;-89
2023/09/27 02:20:25;;;;;;;;;;;;;;;24.94;32.27;101122.97;109081;1266;67545;-89
2023/09/27 02:22:50;;;;;;;;;;;;;;;24.94;32.20;101124.15;109169;1266;67523;-89
2023/09/27 02:25:25;;;;;;;;;;;;;;;24.94;32.29;101124.92;109011;1266;74251;-91
2023/09/27 02:27:51;;;;;;;;;;;;;;;24.93;32.37;101124.31;108966;1265;67562;-89
2023/09/27 02:30:16;;;;;;;;;;;;;;;24.93;32.30;101127.80;109059;1267;67507;-89
2023/09/27 02:32:42;;;;;;;;;;;;;;;24.93;32.00;101125.29;109123;1265;67118;-89
2023/09/27 02:35:09;;;;;;;;;;;;;;;24.92;32.29;101125.65;109108;1266;66937;-88
2023/09/27 02:42:49;;;;;;;;;;;;;;;24.92;32.13;101125.62;108950;1268;67445;-89
2023/09/27 02:45:14;;;;;;;;;;;;;;;24.91;32.14;101125.88;109002;1268;67437;-89
2023/09/27 02:47:43;;;;;;;;;;;;;;;24.91;32.15;101128.08;109003;1268;67618;-89
2023/09/27 02:50:09;;;;;;;;;;;;;;;24.91;31.98;101130.88;109031;1266;75137;-89
2023/09/27 02:52:35;;;;;;;;;;;;;;;24.89;31.99;101131.13;109160;1264;67490;-87
2023/09/27 02:57:33;;;;;;;;;;;;;;;24.88;32.29;101129.27;109173;1265;67484;-90
2023/09/27 02:59:59;;;;;;;;;;;;;;;24.87;32.18;101129.86;108177;1265;560089;-89
2023/09/27 03:02:25;;;;;;;;;;;;;;;24.87;31.87;101131.20;108961;1265;67923;-89
2023/09/27 03:04:50;;;;;;;;;;;;;;;24.86;31.96;101136.75;108932;1267;67084;-89
2023/09/27 03:07:16;;;;;;;;;;;;;;;24.84;31.93;101133.27;109160;1267;67597;-90
2023/09/27 03:09:41;;;;;;;;;;;;;;;24.82;31.91;101132.20;109004;1267;67670;-89
2023/09/27 03:14:44;;;;;;;;;;;;;;;24.80;31.86;101130.37;109136;1266;67569;-90
2023/09/27 03:17:13;;;;;;;;;;;;;;;24.77;32.31;101127.77;109187;1268;67659;-90
2023/09/27 06:57:56;;;;;;;;;;;;;;;;;;;;;
2023/09/27 07:54:58;;;;;;;;;;;;;;;24.85;32.05;101226.79;108979;1266;72280;-91
2023/09/27 10:52:30;;;;;;;;;;;;;;;25.33;31.66;101154.21;109009;1264;67755;-89
2023/09/27 10:55:07;;;;;;;;;;;;;;;25.33;31.67;101163.73;109056;1264;67086;-89
2023/09/27 10:57:33;;;;;;;;;;;;;;;25.34;31.91;101161.98;109093;1264;67071;-90
2023/09/27 11:05:22;;;;;;;;;;;;;;;25.36;31.94;101157.33;108898;1270;67021;-90
2023/09/27 11:07:49;;;;;;;;;;;;;;;25.38;31.72;101153.77;108970;1267;74408;-88
2023/09/27 11:10:20;;;;;;;;;;;;;;;25.38;31.75;101147.73;108851;1267;67056;-89
2023/09/27 11:15:26;;;;;;;;;;;;;;;25.39;31.98;101133.21;109119;1266;68228;-91
2023/09/27 11:17:58;;;;;;;;;;;;;;;25.39;31.74;101131.25;109038;1266;67058;-90
2023/09/27 11:20:24;;;;;;;;;;;;;;;25.38;31.91;101132.14;109019;1266;74763;-90
2023/09/27 11:28:59;;;;;;;;;;;;;;;25.38;31.94;101127.40;109063;1265;67447;-90
2023/09/27 11:58:01;;;;;;;;;;;;;;;25.40;31.87;101117.91;109116;1266;67181;-92
2023/09/27 12:00:49;;;;;;;;;;;;;;;25.41;31.74;101120.67;109041;1266;67493;-94
2023/09/27 12:06:18;;;;;;;;;;;;;;;25.40;31.76;101123.35;109004;1264;67889;-90
2023/09/27 12:26:44;;;;;;;;;;;;;;;25.42;31.70;101093.32;109025;1263;67298;31
2023/09/27 12:37:45;;;;;;;;;;;;;;;25.41;31.51;101079.30;109022;1266;67664;-89
2023/09/27 12:40:12;;;;;;;;;;;;;;;25.41;31.56;101079.50;108944;1267;67882;-89
2023/09/27 12:42:37;;;;;;;;;;;;;;;25.42;31.35;101082.95;109233;1264;66900;-89
2023/09/27 12:45:03;;;;;;;;;;;;;;;25.41;31.25;101077.70;109056;1266;67252;-91
2023/09/27 12:47:31;;;;;;;;;;;;;;;25.42;31.23;101074.60;108884;1271;67446;-90
2023/09/27 12:52:25;;;;;;;;;;;;;;;25.42;31.37;101070.95;109063;1265;67084;-89
2023/09/27 12:54:51;;;;;;;;;;;;;;;25.42;31.13;101069.21;108953;1265;67718;-88
2023/09/27 12:57:17;;;;;;;;;;;;;;;25.42;31.34;101065.29;108928;1266;67368;-89
2023/09/27 12:59:47;;;;;;;;;;;;;;;25.43;31.32;101062.83;108930;1266;67670;-91
2023/09/27 13:13:04;;;;;;;;;;;;;;;25.43;31.26;101054.52;109062;1266;67096;-89
2023/09/27 14:03:27;;;;;;;;;;;;;;;25.44;30.62;101028.51;109024;1265;66953;-88
2023/09/27 14:08:34;;;;;;;;;;;;;;;25.43;30.84;101018.16;108958;1268;74173;-91
2023/09/27 14:47:10;;;;;;;;;;;;;;;25.40;30.50;101017.91;108966;1266;67627;-89
2023/09/27 14:52:49;;;;;;;;;;;;;;;25.39;30.25;101018.52;109017;1265;74219;31
2023/09/27 15:15:05;;;;;;;;;;;;;;;25.38;30.32;101013.39;109012;1266;67634;-89
2023/09/27 15:17:38;;;;;;;;;;;;;;;25.38;30.33;101010.56;109080;1266;67360;-86
2023/09/27 15:20:05;;;;;;;;;;;;;;;25.38;30.25;101012.11;108939;1267;75087;-85
2023/09/27 15:22:33;;;;;;;;;;;;;;;25.37;30.47;101009.34;108993;1265;67367;-91
2023/09/27 15:24:59;;;;;;;;;;;;;;;25.36;30.33;101009.13;109122;1267;67676;-86
2023/09/27 15:27:24;;;;;;;;;;;;;;;25.36;30.31;101012.34;108965;1265;67851;-86
2023/09/27 15:29:50;;;;;;;;;;;;;;;25.35;30.34;101011.45;108946;1266;67000;-87
2023/09/27 15:32:15;;;;;;;;;;;;;;;25.35;30.32;101017.48;109121;1265;67458;-86
2023/09/27 15:34:41;;;;;;;;;;;;;;;25.34;30.55;101015.73;108956;1266;67743;-87
2023/09/27 15:37:07;;;;;;;;;;;;;;;25.34;30.51;101016.98;108911;1265;67590;-86
2023/09/27 15:39:33;;;;;;;;;;;;;;;25.34;30.45;101016.38;108965;1267;67819;-86
2023/09/27 15:41:59;;;;;;;;;;;;;;;25.34;30.38;101023.05;108947;1266;67839;-87
2023/09/27 15:44:24;;;;;;;;;;;;;;;25.33;30.29;101021.11;108961;1267;67708;-86
2023/09/27 15:46:51;;;;;;;;;;;;;;;25.33;30.32;101022.04;108972;1266;67548;-87
2023/09/27 15:51:57;;;;;;;;;;;;;;;25.33;30.24;101020.19;108961;1266;67650;-87
2023/09/27 15:54:23;;;;;;;;;;;;;;;25.33;30.46;101021.73;108826;1266;67017;-86
2023/09/27 15:56:48;;;;;;;;;;;;;;;25.32;30.32;101020.41;108962;1266;67917;-86
2023/09/27 15:59:14;;;;;;;;;;;;;;;25.32;30.53;101016.74;108861;1266;68153;-86
2023/09/27 16:01:41;;;;;;;;;;;;;;;25.32;30.55;101018.34;108950;1266;67600;-87
2023/09/27 16:04:08;;;;;;;;;;;;;;;25.32;30.43;101017.72;108901;1266;67714;-87
2023/09/27 16:06:33;;;;;;;;;;;;;;;25.32;30.44;101016.44;108857;1266;67557;-86
2023/09/27 16:08:59;;;;;;;;;;;;;;;25.31;30.45;101014.95;108839;1266;67659;-86
2023/09/27 16:11:27;;;;;;;;;;;;;;;25.32;30.44;101017.67;108840;1271;67896;-86
2023/09/27 16:13:52;;;;;;;;;;;;;;;25.31;30.32;101018.80;108847;1272;67665;-87
2023/09/27 16:16:21;;;;;;;;;;;;;;;25.31;30.21;101021.74;108838;1266;67846;-92
2023/09/27 16:18:47;;;;;;;;;;;;;;;25.32;30.41;101020.36;108869;1266;66990;-86
2023/09/27 16:21:13;;;;;;;;;;;;;;;25.32;30.48;101018.86;108917;1266;66956;-86
2023/09/27 16:23:38;;;;;;;;;;;;;;;25.32;30.34;101016.79;108989;1265;67981;-86
2023/09/27 16:26:05;;;;;;;;;;;;;;;25.33;30.52;101018.77;108927;1266;67603;-87
2023/09/27 16:28:30;;;;;;;;;;;;;;;25.32;30.35;101019.58;108955;1265;67333;-86
2023/09/27 16:30:57;;;;;;;;;;;;;;;25.32;30.48;101018.29;108931;1267;67358;-86
2023/09/27 16:33:24;;;;;;;;;;;;;;;25.32;30.39;101018.55;108943;1266;66876;-87
2023/09/27 16:35:50;;;;;;;;;;;;;;;25.32;30.70;101019.73;108946;1266;67717;-86
2023/09/27 16:38:16;;;;;;;;;;;;;;;25.32;30.66;101021.43;108943;1266;67831;-86
2023/09/27 16:40:41;;;;;;;;;;;;;;;25.32;30.58;101021.33;109005;1266;67583;-86
2023/09/27 16:43:08;;;;;;;;;;;;;;;25.32;30.56;101023.44;108985;1266;67506;-91
2023/09/27 16:45:38;;;;;;;;;;;;;;;25.32;30.52;101030.08;109128;1265;67438;-86
2023/09/27 16:48:04;;;;;;;;;;;;;;;25.32;30.66;101033.48;109061;1266;67485;-86
2023/09/27 16:50:29;;;;;;;;;;;;;;;25.33;30.73;101036.62;108989;1265;67689;-86
2023/09/27 16:52:54;;;;;;;;;;;;;;;25.32;30.61;101034.92;109080;1266;67067;-86
2023/09/27 16:55:20;;;;;;;;;;;;;;;25.32;30.80;101041.52;109238;1266;67510;-86
2023/09/27 16:57:46;;;;;;;;;;;;;;;25.31;30.82;101039.05;109171;1266;66953;-86
2023/09/27 17:00:12;;;;;;;;;;;;;;;25.32;30.67;101038.70;109278;1266;67232;-86
2023/09/27 17:02:40;;;;;;;;;;;;;;;25.32;30.58;101037.77;109225;1266;66837;-86
2023/09/27 17:05:05;;;;;;;;;;;;;;;25.32;30.73;101044.30;109112;1266;66886;-86
2023/09/27 17:07:33;;;;;;;;;;;;;;;25.31;30.68;101039.58;109056;1266;67551;-86
2023/09/27 17:12:39;;;;;;;;;;;;;;;25.31;30.75;101047.88;109038;1266;74298;-86
2023/09/27 17:15:06;;;;;;;;;;;;;;;25.30;30.69;101048.84;109093;1266;67620;-85
2023/09/27 17:17:32;;;;;;;;;;;;;;;25.30;30.61;101050.54;109138;1266;67023;-86
2023/09/27 17:19:57;;;;;;;;;;;;;;;25.30;30.72;101051.16;109141;1266;67401;-85
2023/09/27 17:22:22;;;;;;;;;;;;;;;25.30;30.85;101056.02;109064;1266;66976;-86
2023/09/27 17:24:48;;;;;;;;;;;;;;;25.30;30.74;101058.52;109081;1265;67662;-85
2023/09/27 17:27:15;;;;;;;;;;;;;;;25.30;30.75;101058.84;108937;1266;67635;-85
2023/09/27 17:29:40;;;;;;;;;;;;;;;25.30;30.82;101060.44;109020;1266;67644;-85
2023/09/27 17:32:05;;;;;;;;;;;;;;;25.29;31.05;101059.20;108982;1266;67987;-85
2023/09/27 17:34:31;;;;;;;;;;;;;;;25.30;30.78;101064.77;108949;1266;67513;-86
2023/09/27 17:36:59;;;;;;;;;;;;;;;25.30;31.03;101066.30;108950;1265;67525;-90
2023/09/27 17:39:25;;;;;;;;;;;;;;;25.29;30.83;101067.70;108718;1266;325306;-85
2023/09/27 17:41:51;;;;;;;;;;;;;;;25.30;30.82;101066.01;109003;1266;67607;-85
2023/09/27 17:44:16;;;;;;;;;;;;;;;25.29;30.86;101069.92;108966;1265;67631;-85
2023/09/27 17:46:41;;;;;;;;;;;;;;;25.29;30.75;101072.55;108983;1266;67087;-85
2023/09/27 17:49:07;;;;;;;;;;;;;;;25.29;30.53;101072.04;109000;1265;67454;-86
2023/09/27 17:51:32;;;;;;;;;;;;;;;25.29;30.87;101074.67;108901;1266;67619;-85
2023/09/27 17:53:59;;;;;;;;;;;;;;;25.28;30.88;101075.90;109031;1266;66910;-85
2023/09/27 17:56:24;;;;;;;;;;;;;;;25.29;30.91;101079.10;108954;1266;67481;-85
2023/09/27 17:58:50;;;;;;;;;;;;;;;25.28;30.93;101082.55;108976;1266;67735;-85
2023/09/27 18:01:15;;;;;;;;;;;;;;;25.27;30.86;101079.31;108918;1265;67468;-86
2023/09/27 18:03:41;;;;;;;;;;;;;;;25.28;31.10;101083.48;109016;1265;67614;-85
2023/09/27 18:06:07;;;;;;;;;;;;;;;25.27;30.95;101081.34;108979;1265;67640;-86
2023/09/27 18:08:32;;;;;;;;;;;;;;;25.27;30.67;101085.98;108977;1266;66990;-86
2023/09/27 18:11:11;;;;;;;;;;;;;;;25.27;30.80;101083.39;109055;1265;66863;-86
2023/09/27 18:13:37;;;;;;;;;;;;;;;25.27;30.78;101086.85;108996;1268;67015;-86
2023/09/27 18:16:02;;;;;;;;;;;;;;;25.27;30.66;101088.50;109048;1266;67070;-86
2023/09/27 18:18:28;;;;;;;;;;;;;;;25.26;30.68;101085.98;109033;1266;67553;-85
2023/09/27 18:20:53;;;;;;;;;;;;;;;25.26;30.85;101088.77;109025;1266;67423;-86
2023/09/27 18:23:20;;;;;;;;;;;;;;;25.25;30.80;101090.00;108984;1265;67623;-85
2023/09/27 18:25:45;;;;;;;;;;;;;;;25.25;31.08;101092.38;108926;1265;75177;-86
2023/09/27 18:28:11;;;;;;;;;;;;;;;25.24;30.69;101092.84;108982;1266;67498;-85
2023/09/27 18:30:36;;;;;;;;;;;;;;;25.24;30.84;101096.08;108932;1266;67551;-85
2023/09/27 18:33:03;;;;;;;;;;;;;;;25.23;30.93;101096.81;108970;1266;67547;-85
2023/09/27 18:35:29;;;;;;;;;;;;;;;25.23;30.87;101101.76;108989;1266;67585;-85
2023/09/27 18:37:55;;;;;;;;;;;;;;;25.22;30.98;101098.02;109052;1268;67649;-85
2023/09/27 18:40:21;;;;;;;;;;;;;;;25.22;30.71;101093.89;108935;1266;67549;-85
2023/09/27 18:42:47;;;;;;;;;;;;;;;25.21;30.75;101102.74;108998;1265;67622;-90
2023/09/27 18:45:13;;;;;;;;;;;;;;;25.21;30.80;101103.37;109032;1266;66838;-85
2023/09/27 18:47:39;;;;;;;;;;;;;;;25.20;31.03;101106.26;108961;1266;67612;-85
2023/09/27 18:50:04;;;;;;;;;;;;;;;25.20;30.94;101104.71;108963;1265;67530;-85
2023/09/27 18:52:30;;;;;;;;;;;;;;;25.20;30.84;101108.06;108995;1266;67605;-85
2023/09/27 18:54:56;;;;;;;;;;;;;;;25.19;31.09;101104.30;109003;1265;67647;-86
2023/09/27 18:57:22;;;;;;;;;;;;;;;25.19;31.00;101107.04;108943;1266;75146;-85
2023/09/27 18:59:48;;;;;;;;;;;;;;;25.18;30.96;101107.19;108936;1266;67486;-85
2023/09/27 19:02:13;;;;;;;;;;;;;;;25.18;30.88;101110.30;108930;1265;67653;-85
2023/09/27 19:04:39;;;;;;;;;;;;;;;25.18;30.97;101104.73;108883;1265;67736;-85
2023/09/27 19:07:04;;;;;;;;;;;;;;;25.17;31.07;101104.06;109006;1265;67483;-85
2023/09/27 19:09:30;;;;;;;;;;;;;;;25.17;30.93;101102.06;108928;1266;67817;-85
2023/09/27 19:11:58;;;;;;;;;;;;;;;25.17;31.01;101102.06;108926;1266;67833;-85
2023/09/27 19:14:23;;;;;;;;;;;;;;;25.16;31.02;101098.05;108943;1266;66916;-86
2023/09/27 19:16:49;;;;;;;;;;;;;;;25.16;30.93;101098.45;108967;1266;66924;-85
2023/09/27 19:19:15;;;;;;;;;;;;;;;25.16;30.96;101096.41;109008;1266;67616;-85
2023/09/27 19:21:41;;;;;;;;;;;;;;;25.16;30.96;101096.41;109014;1266;66967;-90
2023/09/27 19:24:07;;;;;;;;;;;;;;;25.15;30.74;101090.55;109017;1266;67484;-85
2023/09/27 19:26:33;;;;;;;;;;;;;;;25.15;31.09;101092.76;108956;1266;67570;-85
2023/09/27 19:28:59;;;;;;;;;;;;;;;25.15;31.19;101089.52;108938;1266;67912;-85
2023/09/27 19:31:25;;;;;;;;;;;;;;;25.14;31.04;101092.14;109032;1266;67551;-85
2023/09/27 19:33:50;;;;;;;;;;;;;;;25.15;30.93;101095.13;109015;1266;66990;-86
2023/09/27 19:36:18;;;;;;;;;;;;;;;25.14;30.93;101096.63;109033;1266;67521;-85
2023/09/27 19:38:43;;;;;;;;;;;;;;;25.14;31.09;101096.21;109072;1265;74144;-85
2023/09/27 19:41:09;;;;;;;;;;;;;;;25.14;31.16;101096.21;109016;1265;67499;-85
2023/09/27 19:43:35;;;;;;;;;;;;;;;25.14;31.04;101103.52;108979;1266;67507;-85
2023/09/27 19:46:00;;;;;;;;;;;;;;;25.13;31.13;101099.94;108944;1266;67462;-85
2023/09/27 19:48:29;;;;;;;;;;;;;;;25.13;31.01;101099.20;109082;1266;66863;-91
2023/09/27 19:50:54;;;;;;;;;;;;;;;25.13;31.13;101096.23;109008;1266;66802;-85
2023/09/27 19:53:19;;;;;;;;;;;;;;;25.13;31.02;101100.60;109052;1266;67515;-85
2023/09/27 19:55:45;;;;;;;;;;;;;;;25.13;31.21;101095.19;109016;1266;67796;-85
2023/09/27 19:58:10;;;;;;;;;;;;;;;25.12;31.25;101096.54;109046;1266;66974;-86
2023/09/27 20:00:36;;;;;;;;;;;;;;;25.12;31.20;101093.25;108943;1269;67123;-86
2023/09/27 20:03:01;;;;;;;;;;;;;;;25.12;31.04;101094.11;109011;1266;67552;-85
2023/09/27 20:05:29;;;;;;;;;;;;;;;25.12;31.05;101089.39;108965;1266;67235;-85
2023/09/27 20:07:55;;;;;;;;;;;;;;;25.11;31.15;101092.89;108959;1266;67636;-85
2023/09/27 20:10:21;;;;;;;;;;;;;;;25.11;31.15;101092.64;108967;1266;67770;-85
2023/09/27 20:12:47;;;;;;;;;;;;;;;25.10;31.03;101095.77;109015;1266;67584;-85
2023/09/27 20:15:12;;;;;;;;;;;;;;;25.10;31.24;101093.46;108912;1266;67544;-85
2023/09/27 20:17:38;;;;;;;;;;;;;;;25.10;31.14;101094.73;109009;1266;67680;-85
2023/09/27 20:20:04;;;;;;;;;;;;;;;25.10;31.15;101094.14;109107;1266;67511;-85
2023/09/27 20:22:30;;;;;;;;;;;;;;;25.09;31.11;101101.04;108972;1266;67622;-85
2023/09/27 20:24:57;;;;;;;;;;;;;;;25.09;31.08;101098.15;108934;1266;67653;-85
2023/09/27 20:27:23;;;;;;;;;;;;;;;25.09;31.01;101092.59;109059;1266;67555;-87
2023/09/27 20:29:48;;;;;;;;;;;;;;;25.09;30.95;101089.60;108930;1265;67646;-85
2023/09/27 20:32:14;;;;;;;;;;;;;;;25.09;31.00;101095.27;108981;1266;67752;-85
2023/09/27 20:34:41;;;;;;;;;;;;;;;25.09;31.16;101097.64;109059;1266;67612;-86
2023/09/27 20:37:06;;;;;;;;;;;;;;;25.08;31.08;101095.02;108993;1266;67574;-85
2023/09/27 20:39:34;;;;;;;;;;;;;;;25.08;31.15;101091.88;109000;1266;67621;-86
2023/09/27 20:41:59;;;;;;;;;;;;;;;25.07;31.23;101090.59;108932;1266;67095;-85
2023/09/27 20:44:25;;;;;;;;;;;;;;;25.06;31.16;101092.20;109047;1266;67608;-85
2023/09/27 20:46:51;;;;;;;;;;;;;;;25.06;31.14;101086.52;108916;1266;67237;-85
2023/09/27 20:49:16;;;;;;;;;;;;;;;25.06;31.13;101081.43;109058;1265;67551;-85
2023/09/27 20:51:41;;;;;;;;;;;;;;;25.06;31.27;101085.05;108984;1266;67538;-86
2023/09/27 20:54:07;;;;;;;;;;;;;;;25.05;31.23;101084.13;108953;1266;67601;-85
2023/09/27 20:56:32;;;;;;;;;;;;;;;25.05;31.15;101082.12;109007;1266;66859;-85
2023/09/27 20:58:58;;;;;;;;;;;;;;;25.05;30.98;101079.54;109089;1266;66992;-85
2023/09/27 21:01:24;;;;;;;;;;;;;;;25.05;31.20;101076.14;108966;1266;67612;-85
2023/09/27 21:03:49;;;;;;;;;;;;;;;25.04;31.21;101074.20;108952;1266;66917;-85
2023/09/27 21:06:24;;;;;;;;;;;;;;;25.03;31.14;101077.14;108898;1266;67651;-91
2023/09/27 21:08:50;;;;;;;;;;;;;;;25.03;31.21;101074.56;108992;1265;67470;-85
2023/09/27 21:11:16;;;;;;;;;;;;;;;25.03;30.95;101073.53;108961;1268;67536;-85
2023/09/27 21:13:41;;;;;;;;;;;;;;;25.03;31.22;101076.79;108937;1266;67755;-85
2023/09/27 21:16:06;;;;;;;;;;;;;;;25.01;31.37;101072.37;108938;1266;67728;-85
2023/09/27 21:18:32;;;;;;;;;;;;;;;25.01;31.15;101072.37;109020;1266;67279;-85
2023/09/27 21:20:57;;;;;;;;;;;;;;;25.01;31.32;101070.67;109040;1265;67762;-85
2023/09/27 21:23:23;;;;;;;;;;;;;;;25.00;31.44;101070.67;108941;1266;67571;-85
2023/09/27 21:25:48;;;;;;;;;;;;;;;25.01;31.10;101067.73;108972;1266;66939;-85
2023/09/27 21:28:14;;;;;;;;;;;;;;;25.00;31.26;101066.41;108956;1266;67586;-85
2023/09/27 21:30:39;;;;;;;;;;;;;;;25.00;31.17;101066.66;109005;1266;67549;-85
2023/09/27 21:33:05;;;;;;;;;;;;;;;24.99;31.03;101065.17;108926;1266;67776;-90
2023/09/27 21:35:31;;;;;;;;;;;;;;;24.98;31.24;101062.98;109015;1266;67556;-85
2023/09/27 21:37:57;;;;;;;;;;;;;;;24.98;31.24;101064.66;108998;1266;67851;-85
2023/09/27 21:40:23;;;;;;;;;;;;;;;24.98;31.21;101058.08;108994;1266;67625;-85
2023/09/27 21:42:49;;;;;;;;;;;;;;;24.98;31.37;101054.37;108980;1266;67051;-85
2023/09/27 21:45:15;;;;;;;;;;;;;;;24.97;31.13;101051.29;108965;1269;67773;-86
2023/09/27 21:47:40;;;;;;;;;;;;;;;24.97;31.08;101051.64;108959;1266;67586;-85
2023/09/27 21:50:05;;;;;;;;;;;;;;;24.97;31.17;101047.95;108937;1266;67732;-85
2023/09/27 21:52:35;;;;;;;;;;;;;;;24.97;31.27;101045.22;108984;1266;67502;-85
2023/09/27 21:55:02;;;;;;;;;;;;;;;24.97;31.27;101042.33;109037;1265;74290;-85
2023/09/27 21:57:27;;;;;;;;;;;;;;;24.96;31.24;101042.75;108924;1266;66946;-85
2023/09/27 21:59:53;;;;;;;;;;;;;;;24.96;31.45;101040.89;108935;1266;67550;-85
2023/09/27 22:02:18;;;;;;;;;;;;;;;24.96;31.38;101039.87;108975;1266;67645;-85
2023/09/27 22:04:44;;;;;;;;;;;;;;;24.96;31.25;101039.41;108941;1271;67569;-85
2023/09/27 22:07:10;;;;;;;;;;;;;;;24.96;31.18;101041.62;108984;1266;67774;-85
2023/09/27 22:09:35;;;;;;;;;;;;;;;24.95;31.11;101041.73;108915;1266;66939;-85
2023/09/27 22:12:04;;;;;;;;;;;;;;;24.96;31.16;101037.96;108979;1265;67506;-90
2023/09/27 22:14:29;;;;;;;;;;;;;;;24.95;31.18;101035.45;109046;1265;67499;-85
2023/09/27 22:16:57;;;;;;;;;;;;;;;24.94;31.18;101040.09;108906;1265;67555;-85
2023/09/27 22:19:27;;;;;;;;;;;;;;;24.94;31.25;101035.96;108927;1266;67099;-85
2023/09/27 22:21:57;;;;;;;;;;;;;;;24.94;31.32;101032.48;108962;1266;67538;-85
2023/09/27 22:24:24;;;;;;;;;;;;;;;24.94;31.22;101029.95;108953;1266;67508;-85
2023/09/27 22:26:53;;;;;;;;;;;;;;;24.94;31.39;101026.14;109034;1267;66933;-89
2023/09/27 22:29:19;;;;;;;;;;;;;;;24.93;31.20;101023.16;109002;1265;75165;-85
2023/09/27 22:31:45;;;;;;;;;;;;;;;24.93;31.12;101024.23;108972;1266;67029;-85
2023/09/27 22:34:10;;;;;;;;;;;;;;;24.93;31.03;101021.78;108973;1265;67691;-85
2023/09/27 22:36:40;;;;;;;;;;;;;;;24.93;31.15;101017.60;108934;1266;67563;-85
2023/09/27 22:39:10;;;;;;;;;;;;;;;24.93;31.35;101017.70;108944;1265;67534;-85
2023/09/27 22:41:39;;;;;;;;;;;;;;;24.93;31.22;101019.25;108947;1266;75181;-85
2023/09/27 22:44:05;;;;;;;;;;;;;;;24.92;31.28;101019.77;108927;1266;67096;-85
2023/09/27 22:46:30;;;;;;;;;;;;;;;24.92;31.17;101021.16;109003;1265;67388;-85
2023/09/27 22:48:56;;;;;;;;;;;;;;;24.92;31.28;101018.02;108957;1266;67281;-85
2023/09/27 22:51:21;;;;;;;;;;;;;;;24.92;31.12;101020.14;108968;1267;67679;-85
2023/09/27 22:53:47;;;;;;;;;;;;;;;24.91;31.23;101017.27;108988;1266;67535;-89
2023/09/27 22:56:14;;;;;;;;;;;;;;;24.91;31.34;101011.45;109016;1265;67652;-85
2023/09/27 22:58:40;;;;;;;;;;;;;;;24.91;31.17;101007.43;109038;1265;67638;-85
2023/09/27 23:01:20;;;;;;;;;;;;;;;24.91;31.19;101010.56;108951;1266;67458;-85
2023/09/27 23:03:46;;;;;;;;;;;;;;;24.90;31.18;101007.39;108991;1266;74276;-85
2023/09/27 23:06:15;;;;;;;;;;;;;;;24.90;31.29;101003.83;108918;1272;67646;-85
2023/09/27 23:08:42;;;;;;;;;;;;;;;24.90;31.35;100999.66;108939;1266;67721;-89
2023/09/27 23:11:08;;;;;;;;;;;;;;;24.90;31.13;101000.23;109018;1266;67522;-85
2023/09/27 23:13:37;;;;;;;;;;;;;;;24.89;31.18;100996.23;108885;1266;67571;-85
2023/09/27 23:18:47;;;;;;;;;;;;;;;24.89;31.17;100991.64;109031;1266;67010;-85
2023/09/27 23:21:29;;;;;;;;;;;;;;;24.88;31.23;100987.63;108964;1267;67552;-85
2023/09/27 23:23:59;;;;;;;;;;;;;;;24.88;31.19;100988.45;109020;1265;67593;-85
2023/09/27 23:31:56;;;;;;;;;;;;;;;24.87;31.05;100993.72;108996;1265;67670;-85
2023/09/27 23:34:22;;;;;;;;;;;;;;;24.87;31.17;100992.68;108975;1267;66996;-85